Flight Track Log - Related Links

Times and Time Zones

All times are in EDT time to prevent confusion due to time zone crossing. See the N182BB flight status page for this flight to view local times or setup timezone preferences in your user account.

Time Position Orientation Groundspeed Altitude Reporting Facility
EDT Latitude Longitude Course Direction KTS MPH feet Rate Location/Type
Tue 03:51:36 PM 41.7500 -70.1500 296° West 100 115 6,100  Level KA90
Tue 03:52:00 PM 41.7606 -70.1817 294° West  Level FlightAware Approximate
Tue 03:52:12 PM 41.7667 -70.1833 304° West 110 127 6,200  Level KA90
Tue 03:53:00 PM 41.7742 -70.2226 294° West  Level FlightAware Approximate
Tue 03:53:12 PM 41.7833 -70.2167 304° West 127 146 6,100  Level KA90
Tue 03:54:00 PM 41.7883 -70.2634 296° West  Level FlightAware Approximate
Tue 03:54:12 PM 41.8000 -70.2667 294° West 134 154 6,200  Level KA90
Tue 03:55:00 PM 41.8032 -70.3035 296° West  Level FlightAware Approximate
Tue 03:55:12 PM 41.8333 -70.3000 323° Northwest 136 157 6,100  Level KA90
Tue 03:56:00 PM 41.8180 -70.3438 296° West  Level FlightAware Approximate
Tue 03:56:13 PM 41.8500 -70.3333 304° West 134 154 6,200  Level KA90
Tue 03:57:13 PM 41.8833 -70.3833 312° West 134 154 6,200  Level KA90
Tue 03:58:13 PM 41.9167 -70.4167 323° Northwest 135 155 6,200  Level KA90
Tue 03:59:18 PM 41.9333 -70.4500 304° West 134 154 6,200  Level KA90
Tue 04:00:13 PM 41.9500 -70.4833 304° West 131 151 6,200  Level KA90
Tue 04:01:13 PM 41.9833 -70.5167 323° Northwest 136 157 6,200  Level KA90
Tue 04:02:13 PM 42.0167 -70.5333 340° North 125 144 6,200  Level KA90
Tue 04:03:13 PM 42.0500 -70.5500 340° North 124 143 6,200  Level KA90
Tue 04:04:13 PM 42.0833 -70.5667 340° North 124 143 6,200 -50 Level KA90
Tue 04:05:13 PM 42.1167 -70.5667 360° North 131 151 6,100 -50 Descending KA90
Tue 04:06:13 PM 42.1500 -70.5833 340° North 126 145 6,100  Level KA90
Tue 04:07:13 PM 42.1833 -70.5833 360° North 123 142 6,100 -200 Level KA90
Tue 04:08:13 PM 42.2167 -70.5833 360° North 130 150 5,700 -350 Descending KA90
Tue 04:09:13 PM 42.2667 -70.5833 360° North 136 157 5,400 -450 Descending KA90
Tue 04:10:13 PM 42.3000 -70.5833 360° North 139 160 4,800 -500 Descending KA90
Tue 04:11:13 PM 42.3333 -70.6000 340° North 137 158 4,400 -350 Descending KA90
Tue 04:12:13 PM 42.3667 -70.6000 360° North 135 155 4,100 -150 Descending KA90
Tue 04:13:13 PM 42.4000 -70.6167 340° North 128 147 4,100  Level KA90
Tue 04:14:13 PM 42.4500 -70.6167 360° North 125 144 4,100  Level KA90
Tue 04:15:13 PM 42.4667 -70.6333 324° Northwest 125 144 4,100  Level KA90
Tue 04:16:13 PM 42.5167 -70.6500 346° North 125 144 4,100  Level KA90
Tue 04:17:13 PM 42.5500 -70.6500 360° North 125 144 4,100  Level KA90
Tue 04:18:13 PM 42.5833 -70.6667 340° North 124 143 4,100  Level KA90
Tue 04:19:13 PM 42.6167 -70.6667 360° North 125 144 4,100  Level KA90
Tue 04:20:13 PM 42.6500 -70.6833 340° North 125 144 4,100  Level KA90
Tue 04:21:13 PM 42.6833 -70.7000 340° North 125 144 4,100 -250 Level KA90
Tue 04:22:13 PM 42.7167 -70.7167 340° North 137 158 3,600 -500 Descending KA90
Tue 04:23:13 PM 42.7500 -70.7333 340° North 140 161 3,100 -300 Descending KA90
Tue 04:24:13 PM 42.7833 -70.7333 360° North 134 154 3,000 -198 Descending KA90
Tue 04:25:14 PM 42.8167 -70.7500 340° North 132 152 2,700  Descending KA90
Tue 04:26:13 PM 42.8500 -70.7667 340° North 117 135 3,000 151 Climbing KA90
Tue 04:27:13 PM 42.8833 -70.7833 340° North 128 147 3,000 50 Level KA90
Tue 04:28:13 PM 42.9333 -70.7833 360° North 132 152 3,100 50 Climbing KA90
Tue 04:29:14 PM 42.9500 -70.8167 304° West 134 154 3,100  Level KA90
Tue 04:30:13 PM 43.0000 -70.8333 346° North 131 151 3,100 -50 Level KA90
Tue 04:31:13 PM 43.0167 -70.8500 324° Northwest 132 152 3,000 -500 Descending KA90
Tue 04:32:13 PM 43.0667 -70.8667 346° North 145 167 2,100 -850 Descending KA90
Tue 04:33:13 PM 43.1000 -70.8667 360° North 127 146 1,300 -800 Descending KA90

Login

Don't have an account? Register now (free) for customized features, flight alerts, and more!